Time;durP1;ratioP1;P1;durP2;ratioP2;P2;SDS_P1;SDS_P2;PMS_P1;PMS_P2;Temp;Humidity;BMP_temperature;BMP_pressure;BME280_temperature;BME280_humidity;BME280_pressure;Samples;Min_cycle;Max_cycle;Signal;HPM_P1;HPM_P2
2023/10/25 00:00:55;;;;;;;27.73;12.40;;;9.40;99.90;;;;;;5094172;28;20047;-78
2023/10/25 00:03:20;;;;;;;23.40;11.77;;;10.00;99.90;;;;;;5109498;28;20048;-76
2023/10/25 00:05:46;;;;;;;27.75;11.73;;;9.30;99.90;;;;;;5083829;28;20155;-77
2023/10/25 00:08:12;;;;;;;22.38;11.75;;;9.40;99.90;;;;;;5092937;28;20028;-78
2023/10/25 00:10:37;;;;;;;22.02;12.15;;;9.30;99.90;;;;;;5110868;28;20036;-76
2023/10/25 00:13:03;;;;;;;19.88;12.00;;;9.30;99.90;;;;;;5077648;28;20123;-77
2023/10/25 00:15:29;;;;;;;21.40;11.30;;;9.30;99.90;;;;;;5083449;28;20036;-77
2023/10/25 00:17:55;;;;;;;20.60;11.38;;;9.30;99.90;;;;;;5084127;28;20046;-78
2023/10/25 00:20:20;;;;;;;19.70;10.40;;;9.30;99.90;;;;;;5085397;28;20036;-78
2023/10/25 00:22:46;;;;;;;19.30;11.38;;;9.20;99.90;;;;;;5076929;28;20087;-78
2023/10/25 00:25:11;;;;;;;20.10;10.68;;;9.30;99.90;;;;;;5097202;28;20430;-77
2023/10/25 00:27:37;;;;;;;27.13;11.88;;;9.20;99.90;;;;;;5079933;28;20044;-77
2023/10/25 00:30:03;;;;;;;21.48;11.43;;;9.20;99.90;;;;;;5080096;28;20052;-78
2023/10/25 00:32:29;;;;;;;20.52;10.80;;;9.20;99.90;;;;;;5089777;28;20046;-77
2023/10/25 00:34:55;;;;;;;21.13;10.55;;;9.20;99.90;;;;;;5099137;28;20039;-78
2023/10/25 00:37:20;;;;;;;21.27;10.55;;;9.10;99.90;;;;;;5094358;28;20045;-77
2023/10/25 00:39:46;;;;;;;20.13;9.85;;;9.20;99.90;;;;;;5087929;28;20126;-78
2023/10/25 00:42:12;;;;;;;19.90;8.95;;;9.20;99.90;;;;;;5083345;28;20048;-77
2023/10/25 00:44:37;;;;;;;21.48;11.55;;;9.10;99.90;;;;;;5076079;28;20043;-77
2023/10/25 00:47:03;;;;;;;17.67;10.00;;;9.10;99.90;;;;;;5076861;28;20036;-77
2023/10/25 00:49:29;;;;;;;16.65;9.15;;;9.10;99.90;;;;;;5077593;28;20044;-76
2023/10/25 00:51:55;;;;;;;22.35;9.98;;;9.10;99.90;;;;;;5090590;28;20047;-76
2023/10/25 00:54:21;;;;;;;17.80;10.75;;;9.10;99.90;;;;;;5095029;28;20394;-77
2023/10/25 00:56:49;;;;;;;23.98;11.45;;;9.10;99.90;;;;;;5091717;28;20036;-77
2023/10/25 00:59:20;;;;;;;19.17;10.57;;;9.00;99.90;;;;;;5095879;28;20486;-78
2023/10/25 01:01:47;;;;;;;17.77;10.70;;;9.00;99.90;;;;;;5080819;28;20060;-77
2023/10/25 01:04:13;;;;;;;24.55;10.85;;;9.00;99.90;;;;;;5093724;28;20048;-78
2023/10/25 01:06:39;;;;;;;19.25;10.45;;;9.00;99.90;;;;;;5076378;28;20043;-77
2023/10/25 01:09:05;;;;;;;22.92;11.55;;;9.00;99.90;;;;;;5100201;28;20079;-77
2023/10/25 01:11:33;;;;;;;23.23;10.48;;;8.90;99.90;;;;;;5097466;28;20044;-78
2023/10/25 01:13:59;;;;;;;18.52;11.15;;;8.90;99.90;;;;;;5088363;28;20057;-77
2023/10/25 01:16:25;;;;;;;20.13;11.73;;;8.90;99.90;;;;;;5076168;28;20102;-77
2023/10/25 01:18:50;;;;;;;19.10;9.93;;;8.90;99.90;;;;;;5076282;28;20048;-77
2023/10/25 01:21:16;;;;;;;20.00;11.00;;;9.00;99.90;;;;;;5089862;28;20065;-77
2023/10/25 01:23:42;;;;;;;20.65;11.45;;;8.80;99.90;;;;;;5110549;28;20039;-78
2023/10/25 01:26:07;;;;;;;20.63;11.77;;;8.80;99.90;;;;;;5091330;28;20382;-76
2023/10/25 01:28:33;;;;;;;26.88;12.23;;;8.80;99.90;;;;;;5091245;28;20037;-78
2023/10/25 01:30:59;;;;;;;22.73;10.20;;;8.80;99.90;;;;;;5094420;28;20058;-77
2023/10/25 01:33:28;;;;;;;26.17;11.45;;;8.80;99.90;;;;;;5092151;28;20040;-77
2023/10/25 01:35:53;;;;;;;21.00;9.25;;;8.80;99.90;;;;;;5086857;28;20047;-77
2023/10/25 01:38:19;;;;;;;17.55;10.30;;;8.80;99.90;;;;;;5089545;28;20048;-77
2023/10/25 01:40:45;;;;;;;26.98;12.00;;;8.70;99.90;;;;;;5077074;28;20050;-77
2023/10/25 01:43:10;;;;;;;21.90;10.85;;;8.70;99.90;;;;;;5087892;28;20044;-78
2023/10/25 01:45:36;;;;;;;22.23;11.70;;;8.90;99.90;;;;;;5090514;28;20093;-77
2023/10/25 01:48:02;;;;;;;28.80;11.18;;;8.70;99.90;;;;;;5082542;28;20040;-76
2023/10/25 01:50:27;;;;;;;24.90;11.10;;;8.60;99.90;;;;;;5075592;28;20350;-77
2023/10/25 01:52:53;;;;;;;24.20;11.90;;;8.60;99.90;;;;;;5059062;28;20040;-77
2023/10/25 01:55:18;;;;;;;21.10;11.27;;;8.60;99.90;;;;;;5076329;28;20527;-77
2023/10/25 01:57:44;;;;;;;20.85;10.27;;;8.60;99.90;;;;;;5092410;28;20055;-78
2023/10/25 02:00:10;;;;;;;21.63;11.60;;;8.60;99.90;;;;;;5079213;28;20051;-78
2023/10/25 02:02:36;;;;;;;15.93;10.38;;;8.60;99.90;;;;;;5091387;28;20052;-77
2023/10/25 02:05:02;;;;;;;25.80;11.15;;;8.60;99.90;;;;;;5073726;28;20512;-78
2023/10/25 02:07:27;;;;;;;18.80;11.15;;;8.50;99.90;;;;;;5077371;28;20059;-77
2023/10/25 02:09:53;;;;;;;21.13;11.02;;;8.60;99.90;;;;;;5102427;28;20127;-77
2023/10/25 02:12:19;;;;;;;23.88;13.00;;;8.50;99.90;;;;;;5087376;28;20493;-77
2023/10/25 02:14:44;;;;;;;25.88;11.85;;;9.10;99.90;;;;;;5076646;28;20387;-75
2023/10/25 02:17:10;;;;;;;25.70;12.38;;;8.50;99.90;;;;;;5071433;28;20122;-77
2023/10/25 02:19:36;;;;;;;19.52;10.55;;;8.40;99.90;;;;;;5081846;28;20036;-76
2023/10/25 02:22:02;;;;;;;19.95;10.93;;;8.50;99.90;;;;;;5090172;28;20048;-77
2023/10/25 02:24:28;;;;;;;19.45;10.60;;;8.40;99.90;;;;;;5078080;28;20047;-76
2023/10/25 02:26:54;;;;;;;24.35;10.80;;;8.50;99.90;;;;;;5061274;28;20105;-76
2023/10/25 02:29:19;;;;;;;23.60;11.23;;;8.40;99.90;;;;;;5095448;28;20047;-77
2023/10/25 02:31:45;;;;;;;27.70;11.82;;;8.50;99.90;;;;;;5090087;28;20428;-77
2023/10/25 02:34:10;;;;;;;24.00;13.13;;;8.80;99.90;;;;;;5081650;28;20044;-77
2023/10/25 02:36:36;;;;;;;18.83;11.05;;;8.40;99.90;;;;;;5084546;28;20045;-77
2023/10/25 02:39:02;;;;;;;19.48;11.35;;;8.80;99.90;;;;;;5076564;28;20066;-76
2023/10/25 02:41:27;;;;;;;21.15;12.48;;;8.40;99.90;;;;;;5083587;28;20047;-77
2023/10/25 02:43:56;;;;;;;26.95;12.05;;;8.40;99.90;;;;;;5088135;28;20040;-77
2023/10/25 02:46:22;;;;;;;20.55;11.98;;;8.40;99.90;;;;;;5079019;28;20431;-78
2023/10/25 02:48:49;;;;;;;24.95;12.95;;;8.30;99.90;;;;;;5084166;28;20052;-76
2023/10/25 02:51:15;;;;;;;22.02;12.95;;;8.40;99.90;;;;;;5085513;28;20536;-77
2023/10/25 02:53:40;;;;;;;22.00;12.90;;;8.40;99.90;;;;;;5072544;28;20044;-76
2023/10/25 02:56:07;;;;;;;32.35;15.38;;;8.30;99.90;;;;;;5093458;28;20090;-77
2023/10/25 02:58:35;;;;;;;26.77;14.38;;;8.30;99.90;;;;;;5094173;28;20062;-77
2023/10/25 03:01:01;;;;;;;;;;;8.30;99.90;;;;;;5093675;28;20046;-77
2023/10/25 03:03:28;;;;;;;21.90;14.75;;;8.30;99.90;;;;;;5095120;28;20002;-77
2023/10/25 03:05:54;;;;;;;27.38;15.27;;;8.30;99.90;;;;;;5082672;28;20044;-77
2023/10/25 03:08:20;;;;;;;29.40;14.27;;;8.30;99.90;;;;;;5094347;28;20113;-76
2023/10/25 03:10:49;;;;;;;27.58;14.38;;;8.30;99.90;;;;;;5083265;28;20045;-77
2023/10/25 03:13:15;;;;;;;33.33;16.92;;;8.30;99.90;;;;;;5074275;28;20044;-77
2023/10/25 03:15:41;;;;;;;31.42;15.00;;;8.30;99.90;;;;;;5075211;28;20504;-76
2023/10/25 03:18:07;;;;;;;33.42;17.13;;;8.30;99.90;;;;;;5082685;28;20041;-76
2023/10/25 03:20:34;;;;;;;27.20;16.05;;;8.30;99.90;;;;;;5083477;28;20393;-77
2023/10/25 03:23:00;;;;;;;30.52;16.38;;;8.20;99.90;;;;;;5077054;28;20037;-78
2023/10/25 03:25:25;;;;;;;26.08;17.58;;;8.30;99.90;;;;;;5080736;28;20047;-77
2023/10/25 03:27:51;;;;;;;28.80;17.83;;;8.20;99.90;;;;;;5093088;28;20045;-77
2023/10/25 03:30:20;;;;;;;27.77;17.20;;;8.20;99.90;;;;;;5097380;28;20047;-77
2023/10/25 03:32:46;;;;;;;29.65;17.58;;;8.20;99.90;;;;;;5112418;28;20048;-77
2023/10/25 03:35:14;;;;;;;29.38;17.88;;;8.20;99.90;;;;;;5098693;28;20044;-77
2023/10/25 03:37:40;;;;;;;33.75;19.55;;;8.20;99.90;;;;;;5099563;28;20044;-77
2023/10/25 03:40:10;;;;;;;30.92;18.70;;;9.10;99.90;;;;;;5095172;28;20037;-76
2023/10/25 03:42:36;;;;;;;35.15;19.65;;;8.20;99.90;;;;;;5076584;28;20055;-77
2023/10/25 03:45:03;;;;;;;33.42;19.83;;;8.20;99.90;;;;;;5078396;28;20052;-76
2023/10/25 03:47:29;;;;;;;34.70;19.95;;;8.20;99.90;;;;;;5080048;28;20045;-77
2023/10/25 03:49:54;;;;;;;33.30;20.00;;;8.20;99.90;;;;;;5076770;28;20063;-76
2023/10/25 03:52:21;;;;;;;38.03;21.10;;;8.20;99.90;;;;;;5077577;28;20045;-77
2023/10/25 03:54:46;;;;;;;33.10;18.60;;;8.20;99.90;;;;;;5089167;28;20075;-77
2023/10/25 03:57:12;;;;;;;32.35;19.83;;;8.20;99.90;;;;;;5080871;28;20043;-77
2023/10/25 03:59:38;;;;;;;38.38;22.23;;;8.10;99.90;;;;;;5080630;28;20547;-77
2023/10/25 04:02:04;;;;;;;44.95;20.17;;;8.10;99.90;;;;;;5090558;28;20057;-77
2023/10/25 04:04:30;;;;;;;33.45;19.95;;;8.20;99.90;;;;;;5080476;28;20383;-76
2023/10/25 04:06:56;;;;;;;31.15;19.35;;;8.20;99.90;;;;;;5079092;28;20123;-77
2023/10/25 04:09:22;;;;;;;37.05;20.42;;;8.20;99.90;;;;;;5079751;28;20044;-78
2023/10/25 04:11:47;;;;;;;34.50;19.45;;;8.20;99.90;;;;;;5093059;28;20044;-77
2023/10/25 04:14:14;;;;;;;30.48;19.80;;;8.20;99.90;;;;;;5097635;28;20048;-77
2023/10/25 04:16:43;;;;;;;29.95;19.00;;;8.20;99.90;;;;;;5084469;28;20047;-77
2023/10/25 04:19:08;;;;;;;33.78;19.88;;;8.10;99.90;;;;;;5076786;28;20036;-77
2023/10/25 04:21:34;;;;;;;30.00;20.15;;;8.10;99.90;;;;;;5077394;28;20053;-77
2023/10/25 04:24:01;;;;;;;28.58;19.00;;;8.20;99.90;;;;;;5078667;28;20043;-76
2023/10/25 04:26:28;;;;;;;34.95;20.10;;;8.10;99.90;;;;;;5086240;28;20401;-78
2023/10/25 04:28:54;;;;;;;31.98;20.13;;;8.20;99.90;;;;;;5076501;28;20119;-77
2023/10/25 04:31:20;;;;;;;29.17;18.80;;;8.10;99.90;;;;;;5089035;28;20075;-77
2023/10/25 04:33:47;;;;;;;29.77;18.80;;;8.10;99.90;;;;;;5099437;28;20059;-77
2023/10/25 04:36:13;;;;;;;28.73;17.80;;;8.20;99.90;;;;;;5100042;28;20124;-77
2023/10/25 04:38:39;;;;;;;27.77;18.15;;;8.10;99.90;;;;;;5083846;28;20072;-76
2023/10/25 04:41:04;;;;;;;31.25;19.52;;;8.10;99.90;;;;;;5082399;28;20101;-77
2023/10/25 04:43:30;;;;;;;30.98;18.13;;;8.10;99.90;;;;;;5096050;28;20089;-77
2023/10/25 04:45:56;;;;;;;31.00;17.65;;;8.10;99.90;;;;;;5090944;28;20049;-77
2023/10/25 04:48:22;;;;;;;36.05;18.17;;;8.10;99.90;;;;;;5092702;28;20051;-76
2023/10/25 04:50:48;;;;;;;28.50;19.08;;;8.10;99.90;;;;;;5075350;28;20389;-77
2023/10/25 04:53:13;;;;;;;33.08;18.88;;;8.10;99.90;;;;;;5077255;28;20432;-76
2023/10/25 04:55:44;;;;;;;32.63;18.65;;;8.10;99.90;;;;;;5077026;28;20047;-77
2023/10/25 04:58:10;;;;;;;28.55;16.80;;;8.10;99.90;;;;;;5080702;28;20055;-76
2023/10/25 05:00:36;;;;;;;31.40;17.25;;;8.00;99.90;;;;;;5079598;28;20045;-77
2023/10/25 05:03:04;;;;;;;30.65;18.60;;;8.00;99.90;;;;;;5090214;28;20081;-77
2023/10/25 05:05:30;;;;;;;31.20;18.00;;;8.30;99.90;;;;;;5081020;28;20086;-77
2023/10/25 05:07:56;;;;;;;36.40;19.60;;;8.00;99.90;;;;;;5092891;28;20049;-76
2023/10/25 05:10:25;;;;;;;25.58;15.77;;;8.00;99.90;;;;;;5078413;28;20059;-76
2023/10/25 05:12:52;;;;;;;24.95;16.95;;;8.00;99.90;;;;;;5099450;28;20115;-76
2023/10/25 05:15:20;;;;;;;27.05;16.88;;;8.00;99.90;;;;;;5078727;28;20070;-77
2023/10/25 05:17:47;;;;;;;29.85;17.58;;;8.00;99.90;;;;;;5076592;28;20432;-78
2023/10/25 05:20:14;;;;;;;30.40;16.35;;;7.90;99.90;;;;;;5093995;28;20044;-76
2023/10/25 05:22:42;;;;;;;29.83;17.52;;;7.90;99.90;;;;;;5077822;28;20032;-77
2023/10/25 05:25:09;;;;;;;31.98;16.48;;;7.90;99.90;;;;;;5059438;28;20175;-77
2023/10/25 05:27:36;;;;;;;28.87;15.97;;;7.90;99.90;;;;;;5080777;28;20052;-76
2023/10/25 05:30:03;;;;;;;25.08;15.63;;;7.90;99.90;;;;;;5087253;28;20055;-77
2023/10/25 05:32:34;;;;;;;25.13;16.48;;;7.90;99.90;;;;;;5091665;28;20119;-77
2023/10/25 05:35:07;;;;;;;29.77;17.48;;;7.90;99.90;;;;;;5114302;28;20093;-76
2023/10/25 05:37:34;;;;;;;32.80;18.25;;;7.90;99.90;;;;;;5105922;28;20056;-77
2023/10/25 05:40:00;;;;;;;29.92;16.77;;;7.90;99.90;;;;;;5067098;28;20452;-77
2023/10/25 05:42:27;;;;;;;28.58;17.45;;;7.80;99.90;;;;;;5077794;28;20040;-76
2023/10/25 05:44:56;;;;;;;33.53;18.80;;;7.80;99.90;;;;;;5084148;28;20040;-78
2023/10/25 05:47:26;;;;;;;30.38;17.17;;;7.80;99.90;;;;;;5095888;28;20135;-77
2023/10/25 05:49:57;;;;;;;27.17;16.02;;;7.80;99.90;;;;;;5097019;28;20119;-77
2023/10/25 05:52:23;;;;;;;35.35;17.38;;;7.70;99.90;;;;;;5092478;28;20135;-76
2023/10/25 05:54:55;;;;;;;27.15;16.85;;;7.70;99.90;;;;;;5078935;28;20052;-77
2023/10/25 05:57:21;;;;;;;28.48;16.42;;;7.70;99.90;;;;;;5076956;28;20084;-77
2023/10/25 05:59:47;;;;;;;25.98;15.68;;;7.70;99.90;;;;;;5097951;28;20476;-77
2023/10/25 06:02:22;;;;;;;27.60;16.27;;;7.70;99.90;;;;;;5095026;28;20052;-76
2023/10/25 06:04:49;;;;;;;28.23;16.23;;;7.70;99.90;;;;;;5084116;28;20051;-77
2023/10/25 06:07:15;;;;;;;30.90;17.40;;;7.60;99.90;;;;;;5085643;28;20044;-76
2023/10/25 06:09:41;;;;;;;31.35;17.33;;;7.60;99.90;;;;;;5088576;28;20048;-77
2023/10/25 06:12:08;;;;;;;28.17;15.73;;;7.60;99.90;;;;;;5084335;28;20040;-76
2023/10/25 06:14:34;;;;;;;31.60;17.42;;;7.60;99.90;;;;;;5090890;28;20075;-76
2023/10/25 06:17:00;;;;;;;27.13;16.02;;;8.40;99.90;;;;;;5083428;28;20129;-77
2023/10/25 06:19:26;;;;;;;30.95;15.70;;;7.60;99.90;;;;;;5056865;28;20044;-77
2023/10/25 06:21:53;;;;;;;29.92;16.67;;;7.60;99.90;;;;;;5078595;28;20094;-78
2023/10/25 06:24:19;;;;;;;25.83;16.77;;;7.60;99.90;;;;;;5094971;28;20040;-76
2023/10/25 06:26:44;;;;;;;28.42;16.25;;;7.60;99.90;;;;;;5075063;28;20043;-77
2023/10/25 06:29:13;;;;;;;23.27;14.52;;;7.50;99.90;;;;;;5077018;28;20047;-77
2023/10/25 06:31:39;;;;;;;34.08;17.58;;;7.50;99.90;;;;;;5082973;28;20040;-77
2023/10/25 06:34:04;;;;;;;29.40;17.42;;;7.60;99.90;;;;;;5073950;28;20047;-77
2023/10/25 06:36:34;;;;;;;28.20;15.02;;;7.60;99.90;;;;;;5073135;28;20040;-77
2023/10/25 06:39:04;;;;;;;34.05;16.23;;;7.60;99.90;;;;;;5072624;28;20037;-76
2023/10/25 06:41:34;;;;;;;28.20;16.67;;;7.60;99.90;;;;;;5081778;28;20039;-76
2023/10/25 06:44:00;;;;;;;29.33;16.17;;;7.60;99.90;;;;;;5094502;28;20070;-78
2023/10/25 06:46:26;;;;;;;33.17;16.35;;;7.50;99.90;;;;;;5092633;28;20044;-77
2023/10/25 06:48:54;;;;;;;30.48;14.75;;;7.50;99.90;;;;;;5093785;28;20508;-77
2023/10/25 06:51:20;;;;;;;23.88;14.52;;;7.50;99.90;;;;;;5114517;28;20045;-77
2023/10/25 06:53:49;;;;;;;27.00;15.32;;;7.60;99.90;;;;;;5085811;28;20052;-77
2023/10/25 06:56:15;;;;;;;26.20;15.65;;;7.50;99.90;;;;;;5075970;28;20042;-76
2023/10/25 06:58:41;;;;;;;27.10;14.50;;;7.50;99.90;;;;;;5076187;28;20563;-77
2023/10/25 07:01:10;;;;;;;25.77;16.00;;;7.60;99.90;;;;;;5092570;28;20040;-76
2023/10/25 07:03:37;;;;;;;27.65;14.60;;;7.70;99.90;;;;;;5109457;28;20059;-77
2023/10/25 07:06:04;;;;;;;24.75;14.30;;;7.60;99.90;;;;;;5091241;28;20050;-77
2023/10/25 07:08:30;;;;;;;28.23;15.57;;;7.60;99.90;;;;;;5067955;28;20048;-76
2023/10/25 07:10:57;;;;;;;24.80;14.77;;;7.70;99.90;;;;;;5091319;28;20044;-78
2023/10/25 07:13:26;;;;;;;31.15;15.10;;;7.70;99.90;;;;;;5092528;28;20076;-78
2023/10/25 07:15:54;;;;;;;21.92;14.23;;;7.70;99.90;;;;;;5087140;28;20472;-77
2023/10/25 07:18:20;;;;;;;26.85;14.82;;;7.70;99.90;;;;;;5070348;28;20081;-77
2023/10/25 07:20:46;;;;;;;22.10;13.13;;;7.70;99.90;;;;;;5092091;28;20193;-77
2023/10/25 07:23:12;;;;;;;21.63;12.80;;;7.70;99.90;;;;;;5088629;28;20530;-77
2023/10/25 07:25:41;;;;;;;20.05;13.30;;;8.40;99.90;;;;;;5092771;28;20393;-78
2023/10/25 07:28:06;;;;;;;31.30;15.93;;;7.90;99.90;;;;;;5077555;28;20109;-77
2023/10/25 07:30:34;;;;;;;25.10;13.55;;;7.90;99.90;;;;;;5059398;28;20041;-77
2023/10/25 07:32:59;;;;;;;23.63;12.65;;;7.90;99.90;;;;;;5079020;28;20036;-78
2023/10/25 07:35:25;;;;;;;30.98;14.77;;;7.90;99.90;;;;;;5080130;28;20383;-77
2023/10/25 07:37:51;;;;;;;25.45;14.75;;;7.90;99.90;;;;;;5076547;28;20076;-77
2023/10/25 07:40:16;;;;;;;22.95;12.90;;;7.90;99.90;;;;;;5076974;28;20049;-77
2023/10/25 07:42:42;;;;;;;21.58;14.75;;;7.90;99.90;;;;;;5088632;28;20465;-77
2023/10/25 07:45:08;;;;;;;26.33;14.90;;;8.00;99.90;;;;;;5070391;28;20048;-77
2023/10/25 07:47:34;;;;;;;27.02;13.98;;;7.90;99.90;;;;;;5077211;28;20514;-76
2023/10/25 07:49:59;;;;;;;22.83;13.65;;;8.00;99.90;;;;;;5080502;28;20032;-77
2023/10/25 07:52:27;;;;;;;21.17;14.40;;;8.00;99.90;;;;;;5095428;28;20047;-76
2023/10/25 07:54:53;;;;;;;20.58;13.15;;;8.10;99.90;;;;;;5088266;28;20115;-76
2023/10/25 07:57:19;;;;;;;27.60;13.23;;;8.20;99.90;;;;;;5103899;28;20032;-77
2023/10/25 07:59:45;;;;;;;27.05;13.90;;;8.20;99.90;;;;;;5089725;28;20032;-76
2023/10/25 08:02:12;;;;;;;20.55;13.68;;;8.30;99.90;;;;;;5077925;28;20064;-76
2023/10/25 08:04:38;;;;;;;28.58;15.30;;;8.30;99.90;;;;;;5095059;28;20537;-76
2023/10/25 08:07:04;;;;;;;19.70;12.00;;;8.30;99.90;;;;;;5091832;28;20072;-78
2023/10/25 08:09:30;;;;;;;24.38;13.07;;;8.30;99.90;;;;;;5076893;28;20076;-77
2023/10/25 08:11:57;;;;;;;22.75;12.82;;;8.40;99.90;;;;;;5076674;28;20045;-76
2023/10/25 08:14:25;;;;;;;18.88;12.45;;;8.70;99.90;;;;;;5091673;28;20059;-76
2023/10/25 08:16:51;;;;;;;20.70;12.70;;;8.40;99.90;;;;;;5086765;28;20036;-77
2023/10/25 08:19:18;;;;;;;21.70;12.65;;;8.40;99.90;;;;;;5095662;28;20067;-77
2023/10/25 08:21:44;;;;;;;28.13;12.20;;;9.20;99.90;;;;;;5109513;28;20450;-76
2023/10/25 08:24:10;;;;;;;18.25;12.25;;;8.40;99.90;;;;;;5086358;28;20083;-78
2023/10/25 08:26:39;;;;;;;18.48;11.70;;;8.50;99.90;;;;;;5082453;28;20067;-77
2023/10/25 08:29:08;;;;;;;21.33;11.43;;;8.50;99.90;;;;;;5079673;28;20131;-77
2023/10/25 08:31:35;;;;;;;17.58;11.00;;;8.60;99.90;;;;;;5072578;28;20482;-77
2023/10/25 08:34:01;;;;;;;27.83;11.73;;;8.60;99.90;;;;;;5074957;28;20110;-78
2023/10/25 08:36:30;;;;;;;21.13;12.50;;;8.70;99.90;;;;;;5068123;28;20040;-77
2023/10/25 08:38:56;;;;;;;18.88;10.90;;;8.70;99.90;;;;;;5075469;28;20761;-77
2023/10/25 08:41:27;;;;;;;19.85;11.13;;;8.80;99.90;;;;;;5096261;28;20063;-77
2023/10/25 08:43:58;;;;;;;21.67;12.60;;;8.90;99.90;;;;;;5098930;28;20386;-77
2023/10/25 08:46:25;;;;;;;18.30;12.13;;;9.00;99.90;;;;;;5084462;28;20403;-77
2023/10/25 08:48:55;;;;;;;22.67;11.85;;;9.00;99.90;;;;;;5069877;28;20120;-77
2023/10/25 08:51:24;;;;;;;19.25;12.27;;;9.10;99.90;;;;;;5090350;28;20499;-77
2023/10/25 08:53:58;;;;;;;17.05;10.45;;;9.10;99.90;;;;;;5080095;28;20055;-77
2023/10/25 08:56:25;;;;;;;18.42;10.52;;;9.20;99.90;;;;;;5084600;28;20040;-77
2023/10/25 08:58:51;;;;;;;16.77;10.52;;;9.20;99.90;;;;;;5097262;28;20077;-77
2023/10/25 09:01:18;;;;;;;19.75;10.60;;;9.30;99.90;;;;;;5091027;28;20455;-77
2023/10/25 09:03:43;;;;;;;21.20;11.73;;;9.30;99.90;;;;;;5087059;28;20054;-78
2023/10/25 09:06:11;;;;;;;16.30;10.43;;;9.30;99.90;;;;;;5072233;28;20466;-77
2023/10/25 09:08:37;;;;;;;16.05;9.45;;;9.30;99.90;;;;;;5075459;28;20124;-77
2023/10/25 09:11:04;;;;;;;20.70;10.70;;;9.40;99.90;;;;;;5077832;28;20040;-77
2023/10/25 09:13:35;;;;;;;15.23;10.10;;;9.40;99.90;;;;;;5094170;28;20077;-77
2023/10/25 09:16:11;;;;;;;17.27;9.60;;;9.50;99.90;;;;;;5077051;28;20381;-77
2023/10/25 09:18:38;;;;;;;13.80;8.90;;;9.50;99.90;;;;;;5098957;28;20097;-77
2023/10/25 09:21:05;;;;;;;16.17;9.20;;;9.50;99.90;;;;;;5095390;28;20048;-77
2023/10/25 09:23:35;;;;;;;20.77;11.38;;;9.60;99.90;;;;;;5101836;28;20051;-76
2023/10/25 09:26:18;;;;;;;16.85;10.07;;;9.60;99.90;;;;;;5082473;28;20131;-77
2023/10/25 09:28:47;;;;;;;18.00;10.75;;;9.60;99.90;;;;;;5085764;28;20036;-77
2023/10/25 09:31:31;;;;;;;18.58;9.88;;;9.70;99.90;;;;;;5085807;28;20452;-77
2023/10/25 09:33:58;;;;;;;23.85;11.02;;;9.70;99.90;;;;;;5081275;28;20067;-77
2023/10/25 09:36:25;;;;;;;17.10;10.13;;;9.80;99.90;;;;;;5078568;28;20489;-78
2023/10/25 09:38:52;;;;;;;17.52;9.80;;;9.80;99.90;;;;;;5094776;28;20489;-77
2023/10/25 09:41:18;;;;;;;16.25;7.97;;;9.80;99.90;;;;;;5090072;28;20040;-76
2023/10/25 09:43:51;;;;;;;17.42;9.30;;;9.90;99.90;;;;;;5091175;28;20064;-77
2023/10/25 09:46:22;;;;;;;14.80;8.40;;;9.90;99.90;;;;;;5080389;28;20538;-77
2023/10/25 09:49:02;;;;;;;18.40;9.10;;;9.90;99.90;;;;;;5060211;28;20033;-77
2023/10/25 09:51:34;;;;;;;26.85;9.00;;;10.00;99.90;;;;;;5090555;27;20052;-77
2023/10/25 09:54:11;;;;;;;17.40;9.13;;;10.00;99.90;;;;;;5073409;28;20516;-78
2023/10/25 09:56:42;;;;;;;14.93;9.10;;;10.10;99.90;;;;;;5074974;28;20040;-77
2023/10/25 09:59:11;;;;;;;23.95;9.48;;;10.10;99.90;;;;;;5086245;28;20048;-77
2023/10/25 10:01:38;;;;;;;20.15;9.27;;;10.10;99.90;;;;;;5078017;28;20409;-77
2023/10/25 10:04:17;;;;;;;20.23;10.18;;;10.20;99.90;;;;;;5080266;28;20398;-76
2023/10/25 10:07:04;;;;;;;16.48;8.95;;;10.20;99.90;;;;;;5087995;28;20394;-77
2023/10/25 10:10:01;;;;;;;16.95;9.77;;;10.30;99.90;;;;;;5090171;28;20110;-78
2023/10/25 10:12:27;;;;;;;14.07;9.27;;;10.30;99.90;;;;;;5086327;28;20143;-78
2023/10/25 10:14:53;;;;;;;17.13;10.30;;;10.40;99.90;;;;;;5087218;28;20386;-78
2023/10/25 10:17:19;;;;;;;19.73;12.00;;;10.50;99.90;;;;;;5083969;28;20048;-76
2023/10/25 10:19:46;;;;;;;13.43;9.50;;;10.60;99.90;;;;;;5060997;28;20036;-78
2023/10/25 10:22:14;;;;;;;20.45;11.07;;;10.70;99.90;;;;;;5080806;28;20047;-77
2023/10/25 10:24:41;;;;;;;18.48;10.65;;;10.80;99.90;;;;;;5095032;28;20055;-78
2023/10/25 10:27:11;;;;;;;15.93;10.10;;;11.00;99.90;;;;;;5081460;28;20098;-77
2023/10/25 10:29:38;;;;;;;14.55;9.35;;;11.20;99.90;;;;;;5077695;28;20294;-77
2023/10/25 10:32:05;;;;;;;13.73;8.43;;;11.30;99.90;;;;;;5093178;28;20067;-77
2023/10/25 10:34:56;;;;;;;19.17;9.07;;;11.60;99.90;;;;;;5109212;28;20047;-77
2023/10/25 10:37:28;;;;;;;15.07;8.75;;;11.80;99.90;;;;;;5099398;28;20478;-77
2023/10/25 10:39:56;;;;;;;14.70;8.48;;;12.00;99.90;;;;;;5094731;28;20044;-76
2023/10/25 10:42:28;;;;;;;11.85;8.27;;;12.00;99.90;;;;;;5085873;28;20052;-77
2023/10/25 10:45:09;;;;;;;14.27;8.52;;;11.90;99.90;;;;;;5088862;28;20032;-77
2023/10/25 10:48:14;;;;;;;12.43;7.70;;;11.80;99.90;;;;;;5089301;28;20051;-76
2023/10/25 10:50:40;;;;;;;14.43;9.05;;;11.70;99.90;;;;;;5085981;28;20056;-78
2023/10/25 10:53:06;;;;;;;12.70;8.50;;;11.70;99.90;;;;;;5074466;28;20124;-78
2023/10/25 10:55:32;;;;;;;14.73;8.30;;;11.70;99.90;;;;;;5075439;28;20482;-77
2023/10/25 10:57:58;;;;;;;18.23;9.07;;;11.60;99.90;;;;;;5093740;28;20489;-78
2023/10/25 11:00:26;;;;;;;16.30;8.38;;;11.90;99.90;;;;;;5095484;28;20071;-77
2023/10/25 11:02:55;;;;;;;16.73;9.43;;;11.70;99.90;;;;;;5094816;28;20052;-77
2023/10/25 11:05:24;;;;;;;17.30;9.40;;;11.80;99.90;;;;;;5107356;28;20048;-76
2023/10/25 11:07:50;;;;;;;14.68;7.80;;;11.80;99.90;;;;;;5093859;28;20382;-77
2023/10/25 11:10:17;;;;;;;16.20;8.65;;;11.90;99.90;;;;;;5106413;28;20431;-77
2023/10/25 11:12:43;;;;;;;14.02;7.20;;;11.90;99.90;;;;;;5082160;28;20040;-77
2023/10/25 11:15:10;;;;;;;16.67;7.78;;;12.00;99.90;;;;;;5082173;28;20036;-77
2023/10/25 11:17:37;;;;;;;15.70;7.30;;;12.10;99.90;;;;;;5091399;28;20064;-77
2023/10/25 11:20:03;;;;;;;19.52;8.75;;;12.20;99.90;;;;;;5093367;28;20040;-77
2023/10/25 11:22:30;;;;;;;13.32;7.93;;;12.30;99.90;;;;;;5075059;28;20044;-78
2023/10/25 11:24:57;;;;;;;14.27;7.75;;;12.40;99.90;;;;;;5088325;28;20131;-77
2023/10/25 11:27:29;;;;;;;20.65;12.88;;;12.40;99.90;;;;;;5078193;28;20040;-77
2023/10/25 11:29:55;;;;;;;14.27;8.43;;;12.50;99.90;;;;;;5095531;28;20040;-77
2023/10/25 11:32:21;;;;;;;11.38;8.00;;;12.50;99.90;;;;;;5110927;28;20071;-77
2023/10/25 11:34:52;;;;;;;17.92;7.97;;;12.50;99.90;;;;;;5096840;28;20044;-77
2023/10/25 11:37:19;;;;;;;14.63;8.70;;;12.50;99.90;;;;;;5091595;28;20036;-77
2023/10/25 11:40:01;;;;;;;17.90;9.20;;;12.50;99.90;;;;;;5078322;28;20040;-78
2023/10/25 11:42:31;;;;;;;12.98;8.13;;;12.50;99.90;;;;;;5090591;28;20037;-77
2023/10/25 11:44:59;;;;;;;12.63;7.97;;;12.40;99.90;;;;;;5087417;28;20085;-77
2023/10/25 11:47:26;;;;;;;15.50;8.57;;;12.40;99.90;;;;;;5096504;28;20036;-77
2023/10/25 11:49:54;;;;;;;13.38;8.23;;;12.40;99.90;;;;;;5094021;28;20040;-77
2023/10/25 11:52:21;;;;;;;15.48;8.57;;;12.40;99.90;;;;;;5079828;28;20048;-76
2023/10/25 11:54:47;;;;;;;13.52;8.10;;;12.40;99.90;;;;;;5077068;28;20044;-76
2023/10/25 11:57:13;;;;;;;17.42;8.63;;;12.30;99.90;;;;;;5089423;28;20044;-76
2023/10/25 11:59:38;;;;;;;12.38;7.47;;;12.30;99.90;;;;;;5083669;28;20040;-76
2023/10/25 12:02:05;;;;;;;9.95;6.97;;;12.30;99.90;;;;;;5079474;28;20052;-77
2023/10/25 12:04:30;;;;;;;11.75;7.30;;;12.30;99.90;;;;;;5075855;28;20040;-77
2023/10/25 12:06:56;;;;;;;11.95;7.13;;;12.30;99.90;;;;;;5087198;28;20055;-78
2023/10/25 12:09:22;;;;;;;18.13;7.95;;;12.30;99.90;;;;;;5067049;28;20047;-77
2023/10/25 12:11:47;;;;;;;11.77;7.10;;;12.30;99.90;;;;;;5083097;28;20037;-77
2023/10/25 12:14:13;;;;;;;10.65;6.10;;;12.30;99.90;;;;;;5062741;28;20075;-76
2023/10/25 12:16:39;;;;;;;9.35;6.43;;;12.20;99.90;;;;;;5094090;28;20063;-77
2023/10/25 12:19:04;;;;;;;9.65;6.05;;;12.20;99.90;;;;;;5111150;28;20051;-77
2023/10/25 12:21:32;;;;;;;10.95;6.57;;;12.10;99.90;;;;;;5083883;28;20353;-77
2023/10/25 12:23:57;;;;;;;11.98;7.13;;;12.20;99.90;;;;;;5098350;28;20047;-77
2023/10/25 12:26:23;;;;;;;11.48;6.45;;;12.10;99.90;;;;;;5098662;28;20131;-78
2023/10/25 12:28:49;;;;;;;12.35;7.13;;;12.00;99.90;;;;;;5100543;28;20128;-78
2023/10/25 12:31:14;;;;;;;11.88;7.18;;;12.00;99.90;;;;;;5103301;28;20036;-78
2023/10/25 12:33:40;;;;;;;10.70;7.65;;;12.00;99.90;;;;;;5103303;28;20515;-77
2023/10/25 12:36:07;;;;;;;10.32;7.05;;;12.00;99.90;;;;;;5108696;28;20106;-77
2023/10/25 12:38:32;;;;;;;13.73;6.95;;;11.90;99.90;;;;;;5095639;28;20494;-77